createdAt,value
2022-09-30T00:01:36.921Z,93933.63
2022-09-30T00:04:04.665Z,93938.88
2022-09-30T00:06:35.236Z,93933.84
2022-09-30T00:09:03.952Z,93929.03
2022-09-30T00:11:34.585Z,93933.16
2022-09-30T00:14:03.034Z,93942.19
2022-09-30T00:16:35.798Z,93939.00
2022-09-30T00:19:05.572Z,93945.06
2022-09-30T00:21:35.341Z,93936.00
2022-09-30T00:24:04.142Z,93951.00
2022-09-30T00:26:32.587Z,93947.69
2022-09-30T00:29:01.754Z,93953.75
2022-09-30T00:31:33.472Z,93954.56
2022-09-30T00:34:06.926Z,93951.69
2022-09-30T00:36:50.677Z,93954.34
2022-09-30T00:39:29.144Z,93953.53
2022-09-30T00:42:00.213Z,93952.97
2022-09-30T00:44:57.100Z,93962.22
2022-09-30T00:47:44.105Z,93963.84
2022-09-30T00:50:19.952Z,93958.47
2022-09-30T00:52:54.233Z,93959.25
2022-09-30T00:55:36.847Z,93967.50
2022-09-30T00:58:08.983Z,93964.63
2022-09-30T01:00:37.154Z,93964.63
2022-09-30T01:03:06.052Z,93962.00
2022-09-30T01:05:36.035Z,93968.06
2022-09-30T01:08:05.774Z,93971.16
2022-09-30T01:10:32.982Z,93964.66
2022-09-30T01:13:00.284Z,93983.72
2022-09-30T01:15:43.896Z,93974.13
2022-09-30T01:18:52.692Z,93977.56
2022-09-30T01:21:37.019Z,93979.19
2022-09-30T01:24:35.480Z,93970.59
2022-09-30T01:27:55.724Z,93976.19
2022-09-30T01:31:04.806Z,93977.13
2022-09-30T01:33:53.034Z,93978.81
2022-09-30T01:36:35.159Z,93980.19
2022-09-30T01:39:48.104Z,93985.94
2022-09-30T01:42:51.818Z,93978.34
2022-09-30T01:45:36.101Z,93984.66
2022-09-30T01:48:23.964Z,93989.94
2022-09-30T01:51:03.882Z,93993.59
2022-09-30T01:53:41.136Z,93990.13
2022-09-30T01:56:16.829Z,93998.03
2022-09-30T01:59:07.239Z,93997.69
2022-09-30T02:01:54.089Z,93995.88
2022-09-30T02:04:34.867Z,93993.25
2022-09-30T02:07:07.285Z,94006.50
2022-09-30T02:09:39.277Z,94006.75
2022-09-30T02:12:14.242Z,94011.31
2022-09-30T02:14:51.873Z,94013.72
2022-09-30T02:17:43.089Z,94001.59
2022-09-30T02:20:27.457Z,94005.00
2022-09-30T02:23:08.429Z,94010.28
2022-09-30T02:25:45.050Z,94006.63
2022-09-30T02:28:27.068Z,94003.44
2022-09-30T02:31:00.232Z,94005.59
2022-09-30T02:33:35.152Z,94008.47
2022-09-30T02:36:21.005Z,94009.47
2022-09-30T02:39:01.492Z,94005.81
2022-09-30T02:41:35.918Z,94008.47
2022-09-30T02:44:03.329Z,94016.13
2022-09-30T02:47:31.885Z,94013.13
2022-09-30T02:50:35.865Z,94022.28
2022-09-30T02:53:26.567Z,94016.44
2022-09-30T02:56:14.636Z,94018.53
2022-09-30T02:58:43.953Z,94023.78
2022-09-30T03:01:14.571Z,94024.81
2022-09-30T03:04:01.663Z,94023.44
2022-09-30T03:06:29.437Z,94027.09
2022-09-30T03:08:56.751Z,94024.69
2022-09-30T03:11:28.438Z,94014.38
2022-09-30T03:14:16.971Z,94023.28
2022-09-30T03:16:53.084Z,94026.16
2022-09-30T03:19:37.135Z,94028.00
2022-09-30T03:22:04.389Z,94034.28
2022-09-30T03:25:09.104Z,94043.44
2022-09-30T03:27:43.028Z,94047.09
2022-09-30T03:30:17.921Z,94051.75
2022-09-30T03:33:12.938Z,94052.00
2022-09-30T03:36:08.116Z,94052.44
2022-09-30T03:39:09.277Z,94062.16
2022-09-30T03:41:54.502Z,94067.66
2022-09-30T03:44:46.181Z,94070.50
2022-09-30T03:47:17.171Z,94068.66
2022-09-30T03:49:50.605Z,94086.28
2022-09-30T03:52:18.687Z,94079.19
2022-09-30T03:55:00.335Z,94075.19
2022-09-30T03:57:30.565Z,94080.44
2022-09-30T03:59:59.134Z,94078.06
2022-09-30T04:02:27.241Z,94089.94
2022-09-30T04:04:54.802Z,94076.63
2022-09-30T04:07:21.800Z,94076.50
2022-09-30T04:09:49.033Z,94075.50
2022-09-30T04:12:16.099Z,94087.16
2022-09-30T04:14:43.242Z,94092.22
2022-09-30T04:17:10.633Z,94091.63
2022-09-30T04:19:40.194Z,94091.63
2022-09-30T04:22:08.764Z,94091.63
2022-09-30T04:24:36.649Z,94090.25
2022-09-30T04:27:04.067Z,94097.69
2022-09-30T04:29:31.242Z,94098.94
2022-09-30T04:31:58.285Z,94094.38
2022-09-30T04:34:26.301Z,94094.91
2022-09-30T04:36:53.406Z,94103.84
2022-09-30T04:39:20.549Z,94101.19
2022-09-30T04:41:48.097Z,94103.84
2022-09-30T04:44:16.634Z,94107.28
2022-09-30T04:46:44.444Z,94102.69
2022-09-30T04:49:11.623Z,94110.69
2022-09-30T04:51:39.416Z,94116.97
2022-09-30T04:54:06.657Z,94120.19
2022-09-30T04:56:33.630Z,94124.44
2022-09-30T04:59:00.911Z,94118.16
2022-09-30T05:01:27.999Z,94122.59
2022-09-30T05:03:55.352Z,94126.59
2022-09-30T05:06:22.557Z,94125.81
2022-09-30T05:08:49.816Z,94129.47
2022-09-30T05:11:21.488Z,94137.72
2022-09-30T05:13:49.354Z,94148.47
2022-09-30T05:16:17.901Z,94150.88
2022-09-30T05:18:49.759Z,94155.91
2022-09-30T05:21:20.874Z,94160.13
2022-09-30T05:23:48.444Z,94158.31
2022-09-30T05:26:16.115Z,94164.38
2022-09-30T05:28:43.398Z,94164.03
2022-09-30T05:31:13.441Z,94171.13
2022-09-30T05:33:41.822Z,94173.09
2022-09-30T05:36:14.943Z,94173.09
2022-09-30T05:38:43.503Z,94184.41
2022-09-30T05:41:14.914Z,94182.56
2022-09-30T05:43:53.188Z,94183.38
2022-09-30T05:46:21.238Z,94191.28
2022-09-30T05:48:48.326Z,94193.66
2022-09-30T05:51:15.517Z,94197.78
2022-09-30T05:53:42.562Z,94207.19
2022-09-30T05:56:12.371Z,94201.56
2022-09-30T05:58:42.356Z,94206.16
2022-09-30T06:01:15.355Z,94214.84
2022-09-30T06:03:44.918Z,94219.69
2022-09-30T06:06:12.995Z,94223.69
2022-09-30T06:08:41.446Z,94225.06
2022-09-30T06:11:23.613Z,94226.09
2022-09-30T06:13:52.575Z,94231.72
2022-09-30T06:16:20.513Z,94224.06
2022-09-30T06:18:47.942Z,94228.66
2022-09-30T06:21:18.051Z,94230.84
2022-09-30T06:23:46.529Z,94227.84
2022-09-30T06:26:14.813Z,94235.44
2022-09-30T06:28:42.826Z,94241.06
2022-09-30T06:31:11.439Z,94246.69
2022-09-30T06:33:38.963Z,94240.63
2022-09-30T06:36:06.972Z,94248.00
2022-09-30T06:38:40.292Z,94244.09
2022-09-30T06:41:08.491Z,94247.09
2022-09-30T06:43:37.479Z,94249.84
2022-09-30T06:46:20.371Z,94252.38
2022-09-30T06:48:56.548Z,94255.16
2022-09-30T06:51:33.003Z,94256.91
2022-09-30T06:54:01.976Z,94255.19
2022-09-30T06:56:29.338Z,94250.50
2022-09-30T06:58:57.298Z,94249.59
2022-09-30T07:01:24.851Z,94251.13
2022-09-30T07:03:58.277Z,94258.47
2022-09-30T07:06:28.864Z,94262.88
2022-09-30T07:08:57.786Z,94266.41
2022-09-30T07:11:25.815Z,94276.28
2022-09-30T07:13:53.453Z,94277.66
2022-09-30T07:16:21.476Z,94274.09
2022-09-30T07:18:49.250Z,94279.16
2022-09-30T07:21:17.264Z,94277.53
2022-09-30T07:23:48.249Z,94277.78
2022-09-30T07:26:24.106Z,94283.59
2022-09-30T07:28:52.227Z,94286.72
2022-09-30T07:31:32.987Z,94286.94
2022-09-30T07:34:01.929Z,94284.19
2022-09-30T07:36:33.153Z,94291.19
2022-09-30T07:39:06.223Z,94287.75
2022-09-30T07:41:38.041Z,94302.88
2022-09-30T07:44:08.735Z,94302.88
2022-09-30T07:46:39.030Z,94312.06
2022-09-30T07:49:09.251Z,94296.47
2022-09-30T07:51:42.012Z,94306.47
2022-09-30T07:54:15.844Z,94308.78
2022-09-30T07:57:09.108Z,94307.72
2022-09-30T07:59:39.155Z,94304.75
2022-09-30T08:02:13.863Z,94313.25
2022-09-30T08:04:43.925Z,94320.47
2022-09-30T08:07:14.463Z,94320.13
2022-09-30T08:09:42.192Z,94337.66
2022-09-30T08:12:09.995Z,94341.09
2022-09-30T08:14:37.752Z,94339.16
2022-09-30T08:17:07.619Z,94358.19
2022-09-30T08:19:35.584Z,94346.25
2022-09-30T08:24:31.329Z,94346.50
2022-09-30T08:26:59.278Z,94357.06
2022-09-30T08:29:53.236Z,94360.72
2022-09-30T08:32:14.221Z,94366.00
2022-09-30T08:34:42.117Z,94364.63
2022-09-30T08:37:10.493Z,94371.25
2022-09-30T08:39:38.764Z,94372.28
2022-09-30T08:42:49.643Z,94378.03
2022-09-30T08:45:48.955Z,94375.59
2022-09-30T08:48:37.289Z,94378.81
2022-09-30T08:51:16.926Z,94386.63
2022-09-30T08:53:48.307Z,94377.81
2022-09-30T08:56:31.293Z,94373.56
2022-09-30T08:59:21.279Z,94381.13
2022-09-30T09:01:52.309Z,94377.03
2022-09-30T09:04:19.839Z,94383.53
2022-09-30T09:07:28.138Z,94378.41
2022-09-30T09:10:18.179Z,94380.59
2022-09-30T09:13:13.382Z,94383.81
2022-09-30T09:16:05.679Z,94392.28
2022-09-30T09:18:58.742Z,94394.00
2022-09-30T09:21:37.577Z,94389.00
2022-09-30T09:24:14.399Z,94384.81
2022-09-30T09:26:41.672Z,94392.78
2022-09-30T09:29:54.167Z,94393.66
2022-09-30T09:32:21.183Z,94401.31
2022-09-30T09:34:58.845Z,94400.53
2022-09-30T09:38:25.124Z,94395.50
2022-09-30T09:41:20.696Z,94398.16
2022-09-30T09:44:22.628Z,94400.78
2022-09-30T09:47:05.068Z,94398.13
2022-09-30T09:49:40.028Z,94391.53
2022-09-30T09:52:12.446Z,94385.94
2022-09-30T09:54:52.442Z,94392.28
2022-09-30T09:57:32.206Z,94394.56
2022-09-30T10:00:25.571Z,94389.13
2022-09-30T10:03:20.973Z,94386.66
2022-09-30T10:06:09.153Z,94393.38
2022-09-30T10:08:40.515Z,94389.00
2022-09-30T10:11:21.686Z,94394.97
2022-09-30T10:13:51.415Z,94395.84
2022-09-30T10:16:37.821Z,94399.66
2022-09-30T10:19:20.252Z,94396.03
2022-09-30T10:21:47.214Z,94398.25
2022-09-30T10:24:30.745Z,94412.44
2022-09-30T10:26:57.798Z,94417.06
2022-09-30T10:29:29.766Z,94420.84
2022-09-30T10:32:00.065Z,94429.16
2022-09-30T10:34:35.701Z,94435.56
2022-09-30T10:37:28.049Z,94443.31
2022-09-30T10:40:07.709Z,94441.19
2022-09-30T10:42:39.602Z,94447.06
2022-09-30T10:45:18.851Z,94435.88
2022-09-30T10:47:50.057Z,94441.97
2022-09-30T10:50:25.327Z,94447.06
2022-09-30T10:53:03.892Z,94444.69
2022-09-30T10:55:42.191Z,94446.06
2022-09-30T10:58:49.924Z,94438.91
2022-09-30T11:01:32.569Z,94443.72
2022-09-30T11:04:25.934Z,94449.09
2022-09-30T11:07:02.265Z,94460.03
2022-09-30T11:09:45.981Z,94448.59
2022-09-30T11:12:44.875Z,94453.66
2022-09-30T11:15:44.243Z,94447.78
2022-09-30T11:18:11.249Z,94461.84
2022-09-30T11:21:01.910Z,94466.88
2022-09-30T11:23:38.168Z,94467.25
2022-09-30T11:26:12.781Z,94472.22
2022-09-30T11:29:13.246Z,94482.38
2022-09-30T11:32:06.345Z,94485.91
2022-09-30T11:34:46.345Z,94484.97
2022-09-30T11:37:47.180Z,94481.84
2022-09-30T11:40:40.707Z,94485.16
2022-09-30T11:43:38.255Z,94485.16
2022-09-30T11:46:34.165Z,94483.31
2022-09-30T11:49:26.057Z,94474.09
2022-09-30T11:52:34.118Z,94470.78
2022-09-30T11:55:51.139Z,94476.00
2022-09-30T11:58:40.619Z,94477.78
2022-09-30T12:01:25.220Z,94493.22
2022-09-30T12:04:20.489Z,94489.00
2022-09-30T12:06:55.040Z,94478.19
2022-09-30T12:09:33.086Z,94492.59
2022-09-30T12:12:16.582Z,94510.50
2022-09-30T12:14:57.396Z,94487.97
2022-09-30T12:17:34.735Z,94490.28
2022-09-30T12:20:22.029Z,94485.28
2022-09-30T12:22:51.715Z,94495.47
2022-09-30T12:25:40.893Z,94481.94
2022-09-30T12:28:43.295Z,94473.53
2022-09-30T12:31:20.795Z,94484.94
2022-09-30T12:34:02.963Z,94483.13
2022-09-30T12:36:45.798Z,94503.84
2022-09-30T12:39:51.023Z,94507.91
2022-09-30T12:43:03.096Z,94500.28
2022-09-30T12:45:56.406Z,94492.72
2022-09-30T12:48:34.319Z,94497.44
2022-09-30T12:51:01.755Z,94494.03
2022-09-30T12:53:36.793Z,94484.88
2022-09-30T12:56:10.759Z,94491.53
2022-09-30T12:58:45.157Z,94481.56
2022-09-30T13:01:22.902Z,94485.88
2022-09-30T13:04:10.231Z,94480.44
2022-09-30T13:06:46.556Z,94477.50
2022-09-30T13:09:16.567Z,94463.28
2022-09-30T13:11:55.702Z,94470.81
2022-09-30T13:14:43.483Z,94468.66
2022-09-30T13:17:10.626Z,94469.41
2022-09-30T13:19:40.300Z,94466.84
2022-09-30T13:22:19.894Z,94462.59
2022-09-30T13:25:15.988Z,94460.25
2022-09-30T13:27:46.670Z,94482.03
2022-09-30T13:30:13.596Z,94468.25
2022-09-30T13:32:45.877Z,94474.91
2022-09-30T13:35:35.019Z,94476.84
2022-09-30T13:38:14.338Z,94472.03
2022-09-30T13:41:05.684Z,94467.66
2022-09-30T13:43:38.999Z,94466.81
2022-09-30T13:46:17.022Z,94454.88
2022-09-30T13:48:57.416Z,94459.09
2022-09-30T13:51:28.616Z,94458.06
2022-09-30T13:54:03.817Z,94456.28
2022-09-30T13:56:36.042Z,94458.25
2022-09-30T13:59:38.921Z,94458.13
2022-09-30T14:02:46.700Z,94458.97
2022-09-30T14:05:42.837Z,94465.44
2022-09-30T14:08:33.865Z,94458.47
2022-09-30T14:11:19.708Z,94467.16
2022-09-30T14:14:31.055Z,94472.78
2022-09-30T14:17:30.137Z,94472.25
2022-09-30T14:20:15.822Z,94470.63
2022-09-30T14:22:43.030Z,94469.09
2022-09-30T14:25:19.895Z,94480.13
2022-09-30T14:28:06.274Z,94482.63
2022-09-30T14:30:41.602Z,94491.00
2022-09-30T14:33:24.451Z,94494.81
2022-09-30T14:35:54.561Z,94492.91
2022-09-30T14:38:28.231Z,94498.53
2022-09-30T14:40:59.860Z,94502.22
2022-09-30T14:43:37.769Z,94493.78
2022-09-30T14:46:26.922Z,94484.06
2022-09-30T14:48:57.434Z,94475.34
2022-09-30T14:51:26.403Z,94469.47
2022-09-30T14:54:02.617Z,94473.56
2022-09-30T14:56:34.489Z,94469.56
2022-09-30T14:59:24.893Z,94470.66
2022-09-30T15:01:58.209Z,94473.59
2022-09-30T15:04:39.140Z,94466.13
2022-09-30T15:07:11.821Z,94460.50
2022-09-30T15:09:43.548Z,94457.78
2022-09-30T15:12:17.145Z,94460.97
2022-09-30T15:14:54.926Z,94461.75
2022-09-30T15:17:28.492Z,94466.81
2022-09-30T15:19:57.993Z,94474.28
2022-09-30T15:22:28.973Z,94474.84
2022-09-30T15:24:59.917Z,94472.19
2022-09-30T15:27:36.982Z,94480.47
2022-09-30T15:30:16.409Z,94487.19
2022-09-30T15:32:45.063Z,94491.19
2022-09-30T15:35:22.385Z,94487.47
2022-09-30T15:37:51.208Z,94494.94
2022-09-30T15:40:43.118Z,94497.06
2022-09-30T15:43:15.644Z,94508.50
2022-09-30T15:45:55.105Z,94518.56
2022-09-30T15:48:23.589Z,94518.50
2022-09-30T15:50:54.105Z,94512.88
2022-09-30T15:53:29.767Z,94520.19
2022-09-30T15:56:18.251Z,94518.75
2022-09-30T15:59:06.494Z,94531.16
2022-09-30T16:01:37.305Z,94535.03
2022-09-30T16:04:14.355Z,94533.06
2022-09-30T16:06:41.196Z,94532.72
2022-09-30T16:09:20.115Z,94538.66
2022-09-30T16:11:59.096Z,94546.72
2022-09-30T16:14:33.369Z,94544.44
2022-09-30T16:17:04.120Z,94542.59
2022-09-30T16:19:32.856Z,94551.25
2022-09-30T16:22:00.392Z,94544.75
2022-09-30T16:24:28.508Z,94542.91
2022-09-30T16:26:58.488Z,94547.22
2022-09-30T16:29:27.197Z,94544.13
2022-09-30T16:31:56.821Z,94542.84
2022-09-30T16:34:26.126Z,94539.41
2022-09-30T16:36:55.964Z,94545.84
2022-09-30T16:39:22.904Z,94553.50
2022-09-30T16:41:51.353Z,94557.75
2022-09-30T16:44:18.352Z,94554.28
2022-09-30T16:46:45.383Z,94569.06
2022-09-30T16:49:16.473Z,94567.19
2022-09-30T16:51:43.794Z,94571.13
2022-09-30T16:54:12.270Z,94569.56
2022-09-30T16:56:39.733Z,94567.84
2022-09-30T16:59:15.523Z,94583.59
2022-09-30T17:01:42.583Z,94580.97
2022-09-30T17:04:14.016Z,94580.53
2022-09-30T17:06:44.333Z,94582.91
2022-09-30T17:09:11.433Z,94572.56
2022-09-30T17:11:38.465Z,94578.00
2022-09-30T17:14:06.091Z,94584.88
2022-09-30T17:16:33.786Z,94582.19
2022-09-30T17:19:01.076Z,94583.56
2022-09-30T17:21:28.418Z,94588.94
2022-09-30T17:23:55.806Z,94584.56
2022-09-30T17:26:23.071Z,94575.59
2022-09-30T17:28:50.005Z,94586.16
2022-09-30T17:31:18.203Z,94587.00
2022-09-30T17:33:45.568Z,94588.50
2022-09-30T17:36:14.137Z,94584.69
2022-09-30T17:38:41.738Z,94594.66
2022-09-30T17:41:31.617Z,94604.06
2022-09-30T17:44:02.518Z,94608.19
2022-09-30T17:46:43.075Z,94607.22
2022-09-30T17:49:17.000Z,94612.16
2022-09-30T17:51:46.644Z,94615.91
2022-09-30T17:54:13.593Z,94615.97
2022-09-30T17:56:43.002Z,94608.16
2022-09-30T17:59:13.062Z,94620.88
2022-09-30T18:01:41.948Z,94626.38
2022-09-30T18:04:08.955Z,94620.16
2022-09-30T18:06:36.905Z,94615.31
2022-09-30T18:09:04.291Z,94619.59
2022-09-30T18:11:31.668Z,94617.59
2022-09-30T18:14:02.043Z,94615.38
2022-09-30T18:16:33.883Z,94615.03
2022-09-30T18:19:04.608Z,94611.22
2022-09-30T18:21:35.033Z,94617.16
2022-09-30T18:24:05.319Z,94608.88
2022-09-30T18:26:35.983Z,94612.16
2022-09-30T18:29:05.860Z,94612.25
2022-09-30T18:31:37.128Z,94598.56
2022-09-30T18:34:06.236Z,94622.19
2022-09-30T18:36:33.506Z,94616.78
2022-09-30T18:39:02.736Z,94619.63
2022-09-30T18:41:32.135Z,94622.69
2022-09-30T18:44:02.374Z,94614.41
2022-09-30T18:46:32.490Z,94618.28
2022-09-30T18:48:59.655Z,94620.78
2022-09-30T18:51:26.803Z,94620.19
2022-09-30T18:54:00.149Z,94607.69
2022-09-30T18:56:33.805Z,94622.66
2022-09-30T18:59:05.389Z,94614.75
2022-09-30T19:01:34.126Z,94615.75
2022-09-30T19:04:04.849Z,94618.19
2022-09-30T19:06:32.759Z,94613.75
2022-09-30T19:08:59.799Z,94621.41
2022-09-30T19:11:30.504Z,94623.03
2022-09-30T19:13:59.231Z,94630.50
2022-09-30T19:16:26.291Z,94624.44
2022-09-30T19:18:55.227Z,94623.56
2022-09-30T19:21:22.720Z,94624.53
2022-09-30T19:23:50.164Z,94625.69
2022-09-30T19:26:17.165Z,94618.53
2022-09-30T19:28:45.344Z,94627.41
2022-09-30T19:31:17.254Z,94632.03
2022-09-30T19:33:55.199Z,94621.81
2022-09-30T19:36:25.452Z,94618.13
2022-09-30T19:39:05.566Z,94609.97
2022-09-30T19:41:36.893Z,94613.34
2022-09-30T19:44:04.649Z,94609.69
2022-09-30T19:46:31.924Z,94616.13
2022-09-30T19:48:59.048Z,94615.91
2022-09-30T19:51:29.049Z,94622.59
2022-09-30T19:54:06.333Z,94623.97
2022-09-30T19:56:36.638Z,94610.97
2022-09-30T19:59:04.156Z,94613.78
2022-09-30T20:01:34.595Z,94615.16
2022-09-30T20:04:04.910Z,94616.56
2022-09-30T20:06:34.262Z,94609.66
2022-09-30T20:09:04.297Z,94616.91
2022-09-30T20:11:36.219Z,94611.19
2022-09-30T20:14:25.353Z,94602.47
2022-09-30T20:16:53.593Z,94594.94
2022-09-30T20:19:22.430Z,94604.22
2022-09-30T20:21:50.075Z,94606.63
2022-09-30T20:24:18.458Z,94601.16
2022-09-30T20:26:46.702Z,94592.66
2022-09-30T20:29:13.695Z,94606.22
2022-09-30T20:31:43.149Z,94609.88
2022-09-30T20:34:13.538Z,94613.53
2022-09-30T20:36:41.084Z,94613.75
2022-09-30T20:39:08.380Z,94615.56
2022-09-30T20:41:37.505Z,94619.81
2022-09-30T20:44:14.092Z,94620.41
2022-09-30T20:46:41.859Z,94620.19
2022-09-30T20:49:09.652Z,94619.16
2022-09-30T20:51:36.705Z,94611.25
2022-09-30T20:54:03.941Z,94609.78
2022-09-30T20:56:44.445Z,94600.03
2022-09-30T20:59:18.061Z,94608.53
2022-09-30T21:01:45.004Z,94606.09
2022-09-30T21:04:11.973Z,94602.44
2022-09-30T21:06:39.372Z,94606.94
2022-09-30T21:09:06.539Z,94613.22
2022-09-30T21:11:33.762Z,94610.00
2022-09-30T21:14:01.734Z,94609.22
2022-09-30T21:16:29.750Z,94602.91
2022-09-30T21:18:56.953Z,94616.66
2022-09-30T21:21:26.709Z,94614.47
2022-09-30T21:23:58.887Z,94619.09
2022-09-30T21:26:31.886Z,94620.91
2022-09-30T21:28:59.920Z,94617.72
2022-09-30T21:31:27.728Z,94614.03
2022-09-30T21:33:58.456Z,94612.75
2022-09-30T21:36:27.770Z,94611.19
2022-09-30T21:38:55.161Z,94614.63
2022-09-30T21:41:25.858Z,94617.25
2022-09-30T21:43:53.557Z,94615.41
2022-09-30T21:46:23.095Z,94607.50
2022-09-30T21:48:50.258Z,94603.25
2022-09-30T21:51:18.031Z,94604.84
2022-09-30T21:53:46.808Z,94602.22
2022-09-30T21:56:13.860Z,94605.66
2022-09-30T21:58:40.992Z,94614.19
2022-09-30T22:01:08.084Z,94615.19
2022-09-30T22:03:39.925Z,94613.34
2022-09-30T22:06:08.645Z,94618.63
2022-09-30T22:08:40.232Z,94627.38
2022-09-30T22:11:11.280Z,94631.59
2022-09-30T22:13:46.441Z,94633.44
2022-09-30T22:16:16.246Z,94639.97
2022-09-30T22:18:43.640Z,94630.09
2022-09-30T22:21:13.659Z,94637.09
2022-09-30T22:23:40.993Z,94638.72
2022-09-30T22:26:18.565Z,94629.41
2022-09-30T22:28:47.335Z,94633.31
2022-09-30T22:31:19.859Z,94617.56
2022-09-30T22:34:08.232Z,94627.22
2022-09-30T22:36:54.603Z,94632.72
2022-09-30T22:39:22.678Z,94637.63
2022-09-30T22:41:54.954Z,94646.56
2022-09-30T22:44:25.582Z,94635.66
2022-09-30T22:47:00.131Z,94635.22
2022-09-30T22:49:28.957Z,94635.22
2022-09-30T22:51:57.294Z,94640.50
2022-09-30T22:54:26.341Z,94644.16
2022-09-30T22:56:54.832Z,94641.75
2022-09-30T22:59:23.570Z,94638.53
2022-09-30T23:01:50.489Z,94633.47
2022-09-30T23:04:18.300Z,94636.34
2022-09-30T23:06:52.405Z,94640.78
2022-09-30T23:09:20.914Z,94639.41
2022-09-30T23:11:53.381Z,94642.06
2022-09-30T23:14:21.914Z,94643.91
2022-09-30T23:16:49.667Z,94627.25
2022-09-30T23:19:17.008Z,94630.47
2022-09-30T23:21:44.239Z,94627.25
2022-09-30T23:24:11.986Z,94621.19
2022-09-30T23:26:39.707Z,94619.34
2022-09-30T23:29:11.767Z,94616.69
2022-09-30T23:31:39.401Z,94618.75
2022-09-30T23:34:07.433Z,94629.66
2022-09-30T23:36:36.922Z,94620.16
2022-09-30T23:39:15.373Z,94620.34
2022-09-30T23:41:46.240Z,94625.84
2022-09-30T23:44:15.509Z,94620.81
2022-09-30T23:47:02.534Z,94619.63
2022-09-30T23:49:33.502Z,94617.81
2022-09-30T23:52:00.603Z,94628.59
2022-09-30T23:54:27.534Z,94618.34
2022-09-30T23:56:54.442Z,94635.31
2022-09-30T23:59:21.581Z,94635.19
